Latest Weather Observations for Portland Harbour

IDV60801

Issued at 6:32 pm EDT Monday 23 October 2017 (issued every 30 minutes, with the page automatically refreshed every 10 minutes)

About weather observations | Map of weather stations | Latest weather observations for VIC | Other Formats
Station Details ID: 090192 Name: PORTLAND NTC AWS Lat: -38.34 Lon: 141.61 Height: 0.0 m
Data from the previous 72 hours. | See also: Recent months for locations in Victoria
Date/Time
EDT
Temp
°C
App
Temp
°C
Dew
Point
°C
Rel
Hum
%
Delta-T
°C
Wind Press
QNH
hPa
Press
MSL
hPa
Rain since
9am
mm
Dir  Spd
km/h
Gust
km/h
Spd
kts
Gust
kts
23/06:30pm 14.4 - - - - SW 19 26 10 14 1018.1 1018.1 -
23/06:00pm 14.5 - - - - SW 19 24 10 13 1017.9 1017.9 -
23/05:30pm 15.2 - - - - WSW 15 20 8 11 1017.7 1017.7 -
23/05:00pm 15.0 - - - - WSW 17 22 9 12 1017.8 1017.8 -
23/04:30pm 14.8 - - - - WSW 13 20 7 11 1017.7 1017.7 -
23/04:00pm 13.9 - - - - NNE 11 20 6 11 1018.0 1018.0 -
23/03:30pm 13.9 - - - - NE 17 20 9 11 1018.1 1018.1 -
23/03:00pm 16.0 - - - - SW 11 20 6 11 1018.2 1018.2 -
23/02:30pm 15.6 - - - - WSW 19 26 10 14 1018.2 1018.2 -
23/02:00pm 15.1 - - - - WSW 15 20 8 11 1018.3 1018.3 -
23/01:30pm 14.1 - - - - WSW 20 28 11 15 1018.7 1018.7 -
23/01:00pm 14.6 - - - - WSW 17 22 9 12 1018.8 1018.8 -
23/12:30pm 14.3 - - - - W 9 17 5 9 1019.0 1019.0 -
23/12:00pm 14.7 - - - - SSW 13 17 7 9 1019.2 1019.2 -
23/11:30am 14.3 - - - - SW 9 15 5 8 1019.4 1019.4 -
23/11:00am 13.4 - - - - SW 13 20 7 11 1019.5 1019.5 -
23/10:30am 13.4 - - - - W 11 17 6 9 1019.3 1019.3 -
23/10:00am 14.3 - - - - WSW 7 13 4 7 1019.4 1019.4 -
23/09:30am 14.0 - - - - W 7 11 4 6 1019.4 1019.4 -
23/09:00am 13.0 - - - - W 9 13 5 7 1019.3 1019.3 -
23/08:30am 12.6 - - - - W 9 13 5 7 1019.3 1019.3 -
23/08:00am 11.5 - - - - W 13 17 7 9 1019.2 1019.2 -
23/07:30am 10.9 - - - - W 13 17 7 9 1018.9 1018.9 -
23/07:00am 11.1 - - - - W 7 11 4 6 1018.4 1018.4 -
23/06:30am 11.2 - - - - NW 4 6 2 3 1018.1 1018.1 -
23/06:00am 11.0 - - - - W 4 9 2 5 1018.4 1018.4 -
23/05:30am 11.7 - - - - WNW 6 7 3 4 1018.6 1018.6 -
23/05:00am 11.7 - - - - NW 2 6 1 3 1018.8 1018.8 -
23/04:30am 11.6 - - - - W 4 6 2 3 1018.8 1018.8 -
23/04:00am 12.1 - - - - SW 6 9 3 5 1019.0 1019.0 -
23/03:30am 12.1 - - - - SW 15 20 8 11 1019.1 1019.1 -
23/03:00am 12.0 - - - - SW 6 9 3 5 1019.1 1019.1 -
23/02:30am 12.0 - - - - SSW 11 17 6 9 1019.4 1019.4 -
23/02:00am 12.2 - - - - SW 11 19 6 10 1019.7 1019.7 -
23/01:30am 11.8 - - - - WSW 6 11 3 6 1019.9 1019.9 -
23/01:00am 12.0 - - - - W 6 9 3 5 1020.0 1020.0 -
23/12:30am 12.6 - - - - SW 7 9 4 5 1020.0 1020.0 -
23/12:00am 12.6 - - - - W 7 11 4 6 1020.0 1020.0 -
 
Date/Time
EDT
Temp
°C
App
Temp
°C
Dew
Point
°C
Rel
Hum
%
Delta-T
°C
Wind Press
QNH
hPa
Press
MSL
hPa
Rain since
9am
mm
Dir  Spd
km/h
Gust
km/h
Spd
kts
Gust
kts
22/11:30pm 12.5 - - - - SW 9 13 5 7 1020.3 1020.3 -
22/11:00pm 12.3 - - - - W 7 9 4 5 1020.4 1020.4 -
22/10:30pm 12.7 - - - - WSW 9 13 5 7 1020.5 1020.5 -
22/10:00pm 13.3 - - - - SSW 7 9 4 5 1020.5 1020.5 -
22/09:30pm 13.3 - - - - SSW 11 13 6 7 1020.4 1020.4 -
22/09:00pm 13.3 - - - - SW 11 17 6 9 1020.3 1020.3 -
22/08:30pm 13.5 - - - - SSW 9 13 5 7 1020.2 1020.2 -
22/08:00pm 13.3 - - - - SW 9 15 5 8 1020.0 1020.0 -
22/07:30pm 13.4 - - - - SSW 17 22 9 12 1019.8 1019.8 -
22/07:00pm 13.3 - - - - SW 17 20 9 11 1019.7 1019.7 -
22/06:30pm 13.7 - - - - SW 19 24 10 13 1019.4 1019.4 -
22/06:00pm 14.1 - - - - SSW 19 24 10 13 1019.5 1019.5 -
22/05:30pm 14.4 - - - - SW 20 28 11 15 1019.3 1019.3 -
22/05:00pm 14.4 - - - - SW 22 28 12 15 1019.1 1019.1 -
22/04:30pm 14.2 - - - - SW 20 30 11 16 1019.1 1019.1 -
22/04:00pm 14.0 - - - - SSW 20 28 11 15 1019.2 1019.2 -
22/03:30pm 14.4 - - - - SW 22 30 12 16 1019.2 1019.2 -
22/03:00pm 13.9 - - - - SSW 22 32 12 17 1019.2 1019.2 -
22/02:30pm 14.3 - - - - SW 22 30 12 16 1019.4 1019.4 -
22/02:00pm 13.8 - - - - SSW 20 30 11 16 1019.6 1019.6 -
22/01:30pm 13.7 - - - - SSW 26 32 14 17 1019.9 1019.9 -
22/01:00pm 13.9 - - - - SW 22 28 12 15 1020.1 1020.1 -
22/12:30pm 14.1 - - - - SW 19 28 10 15 1020.1 1020.1 -
22/12:00pm 13.9 - - - - SW 20 32 11 17 1020.2 1020.2 -
22/11:30am 13.2 - - - - SW 22 30 12 16 1020.3 1020.3 -
22/11:00am 13.6 - - - - SW 24 33 13 18 1020.5 1020.5 -
22/10:30am 13.0 - - - - SW 24 32 13 17 1020.6 1020.6 -
22/10:00am 13.7 - - - - SW 28 33 15 18 1020.5 1020.5 -
22/09:30am 13.0 - - - - SW 22 30 12 16 1020.3 1020.3 -
22/09:00am 12.7 - - - - SSW 20 30 11 16 1020.2 1020.2 -
22/08:30am 12.7 - - - - SW 19 28 10 15 1020.1 1020.1 -
22/08:00am 12.3 - - - - SW 15 26 8 14 1020.0 1020.0 -
22/07:30am 12.2 - - - - SW 15 20 8 11 1019.7 1019.7 -
22/07:00am 12.2 - - - - SW 13 19 7 10 1019.5 1019.5 -
22/06:30am 11.8 - - - - WSW 11 20 6 11 1019.3 1019.3 -
22/06:00am 11.6 - - - - SW 15 22 8 12 1019.3 1019.3 -
22/05:30am 11.8 - - - - WSW 11 19 6 10 1019.3 1019.3 -
22/05:00am 12.1 - - - - SW 13 19 7 10 1019.4 1019.4 -
22/04:30am 12.1 - - - - SW 19 26 10 14 1019.7 1019.7 -
22/04:00am 12.1 - - - - SW 13 19 7 10 1019.8 1019.8 -
22/03:30am 12.1 - - - - SW 17 26 9 14 1020.1 1020.1 -
22/03:00am 12.2 - - - - SW 17 24 9 13 1020.3 1020.3 -
22/02:30am 12.0 - - - - SW 20 28 11 15 1020.5 1020.5 -
22/02:00am 11.7 - - - - SW 13 20 7 11 1021.0 1021.0 -
22/01:30am 11.9 - - - - SW 20 30 11 16 1021.5 1021.5 -
22/01:00am 12.5 - - - - SW 19 30 10 16 1021.8 1021.8 -
22/12:30am 12.5 - - - - SW 19 30 10 16 1022.0 1022.0 -
22/12:00am 11.9 - - - - SW 15 20 8 11 1022.2 1022.2 -
 
Date/Time
EDT
Temp
°C
App
Temp
°C
Dew
Point
°C
Rel
Hum
%
Delta-T
°C
Wind Press
QNH
hPa
Press
MSL
hPa
Rain since
9am
mm
Dir  Spd
km/h
Gust
km/h
Spd
kts
Gust
kts
21/11:30pm 12.5 - - - - SW 20 35 11 19 1022.3 1022.3 -
21/11:00pm 12.0 - - - - SW 20 32 11 17 1022.7 1022.7 -
21/10:30pm 11.5 - - - - WSW 15 20 8 11 1022.8 1022.8 -
21/10:00pm 11.6 - - - - SW 19 26 10 14 1023.2 1023.2 -
21/09:30pm 12.0 - - - - WSW 17 28 9 15 1023.1 1023.1 -
21/09:00pm 11.9 - - - - WSW 19 26 10 14 1023.3 1023.3 -
21/08:30pm 12.8 - - - - SW 19 28 10 15 1023.3 1023.3 -
21/08:00pm 13.0 - - - - WSW 17 26 9 14 1023.3 1023.3 -
21/07:30pm 13.1 - - - - WSW 20 30 11 16 1023.2 1023.2 -
21/07:00pm 13.1 - - - - WSW 19 26 10 14 1023.3 1023.3 -
21/06:30pm 13.4 - - - - SW 26 39 14 21 1023.3 1023.3 -
21/06:00pm 12.6 - - - - WSW 22 33 12 18 1023.5 1023.5 -
21/05:30pm 12.7 - - - - SW 28 37 15 20 1023.7 1023.7 -
21/05:00pm 13.0 - - - - SW 28 37 15 20 1023.8 1023.8 -
21/04:30pm 12.8 - - - - SW 32 43 17 23 1024.2 1024.2 -
21/04:00pm 12.7 - - - - SW 22 33 12 18 1024.5 1024.5 -
21/03:30pm 12.6 - - - - SW 26 37 14 20 1024.9 1024.9 -
21/03:00pm 13.6 - - - - WSW 26 39 14 21 1025.1 1025.1 -
21/02:30pm 12.8 - - - - SW 26 35 14 19 1025.3 1025.3 -
21/02:00pm 13.0 - - - - SW 22 33 12 18 1025.4 1025.4 -
21/01:30pm 13.2 - - - - SW 26 37 14 20 1025.5 1025.5 -
21/01:00pm 12.6 - - - - WSW 26 43 14 23 1026.0 1026.0 -
21/12:30pm 12.8 - - - - SW 26 35 14 19 1026.4 1026.4 -
21/12:00pm 12.4 - - - - SW 17 28 9 15 1026.8 1026.8 -
21/11:30am 12.8 - - - - SW 24 35 13 19 1027.1 1027.1 -
21/11:00am 12.9 - - - - SW 22 32 12 17 1027.3 1027.3 -
21/10:30am 12.6 - - - - SW 22 32 12 17 1027.6 1027.6 -
21/10:00am 12.2 - - - - SW 22 37 12 20 1027.7 1027.7 -
21/09:30am 12.0 - - - - WSW 13 19 7 10 1027.7 1027.7 -
21/09:00am 12.2 - - - - SW 19 28 10 15 1027.7 1027.7 -
21/08:30am 12.0 - - - - SSW 13 19 7 10 1027.6 1027.6 -
21/08:00am 11.9 - - - - SW 11 17 6 9 1027.3 1027.3 -
21/07:30am 12.1 - - - - SSW 20 28 11 15 1027.3 1027.3 -
21/07:00am 11.7 - - - - SW 19 28 10 15 1027.3 1027.3 -
21/06:30am 11.8 - - - - SW 17 24 9 13 1027.4 1027.4 -
21/06:00am 11.9 - - - - SW 17 24 9 13 1027.3 1027.3 -
21/05:30am 11.8 - - - - SW 19 26 10 14 1027.4 1027.4 -
21/05:00am 12.0 - - - - SW 17 26 9 14 1027.5 1027.5 -
21/04:30am 11.9 - - - - SW 13 20 7 11 1027.6 1027.6 -
21/04:00am 12.0 - - - - SSW 24 33 13 18 1027.9 1027.9 -
21/03:30am 12.1 - - - - SSW 19 28 10 15 1028.1 1028.1 -
21/03:00am 12.1 - - - - SSW 19 26 10 14 1028.2 1028.2 -
21/02:30am 12.3 - - - - SSW 13 19 7 10 1028.5 1028.5 -
21/02:00am 12.3 - - - - SW 13 24 7 13 1028.9 1028.9 -
21/01:30am 12.3 - - - - SW 15 22 8 12 1029.4 1029.4 -
21/01:00am 12.2 - - - - SW 11 17 6 9 1029.7 1029.7 -
21/12:30am 12.4 - - - - SSW 17 24 9 13 1029.8 1029.8 -
21/12:00am 12.3 - - - - SW 13 20 7 11 1030.1 1030.1 -
 
Date/Time
EDT
Temp
°C
App
Temp
°C
Dew
Point
°C
Rel
Hum
%
Delta-T
°C
Wind Press
QNH
hPa
Press
MSL
hPa
Rain since
9am
mm
Dir  Spd
km/h
Gust
km/h
Spd
kts
Gust
kts
20/11:30pm 12.1 - - - - SW 13 17 7 9 1030.3 1030.3 -
20/11:00pm 12.4 - - - - SSW 19 24 10 13 1030.5 1030.5 -
20/10:30pm 12.4 - - - - SW 13 19 7 10 1030.6 1030.6 -
20/10:00pm 12.4 - - - - SW 17 24 9 13 1030.7 1030.7 -
20/09:30pm 12.4 - - - - SSW 13 17 7 9 1030.7 1030.7 -
20/09:00pm 12.4 - - - - S 17 22 9 12 1030.8 1030.8 -
20/08:30pm 12.4 - - - - SSW 20 30 11 16 1030.8 1030.8 -
20/08:00pm 12.3 - - - - SSW 19 26 10 14 1030.6 1030.6 -
20/07:30pm 12.4 - - - - S 19 28 10 15 1030.3 1030.3 -
20/07:00pm 12.4 - - - - SSW 20 26 11 14 1030.4 1030.4 -

Other Formats:

Comma delimited format used in spreadsheet applications
http://www.bom.gov.au/fwo/IDV60801/IDV60801.95826.axf

JavaScript Object Notation format (JSON) in row-major order
http://www.bom.gov.au/fwo/IDV60801/IDV60801.95826.json